Mount Lawley Perth Metro, Australia
Current Conditions -  °F | °C
As of 6:30 PM on Tuesday 27 Jan 2015 (Local Time) from YPPH Reporting Station
Scattered Clouds Scattered Clouds  
Wind Chill: 34°   Ceiling: Unl
Heat Index: 34°   Visibility: 6mi
Dew Point:   Wind: 16mph
Humidity: 20%   Direction: 200°SSW
Pressure: 29.68"   Gusts: NA
Location:  31.92°S, 115.87°E
Report Text: YPPH 271030Z 20014KT 9999 5000S FEW110 SCT180 34/08 Q1005
Loading
Personal Weather Stations






























Interactive Weather Map New forecast layout! Learn more

10-Day Weather Forecast

Advertisements
Track Severe Weather on mobile